sensor_id;sensor_type;location;lat;lon;timestamp;P1;durP1;ratioP1;P2;durP2;ratioP2
8466;SDS011;4270;48.148;11.648;2022-08-11T00:00:11;5.13;;;4.00;;
8466;SDS011;4270;48.148;11.648;2022-08-11T00:02:46;5.57;;;4.17;;
8466;SDS011;4270;48.148;11.648;2022-08-11T00:05:14;4.80;;;4.10;;
8466;SDS011;4270;48.148;11.648;2022-08-11T00:10:11;6.10;;;4.70;;
8466;SDS011;4270;48.148;11.648;2022-08-11T00:15:12;7.50;;;3.93;;
8466;SDS011;4270;48.148;11.648;2022-08-11T00:17:37;4.93;;;3.90;;
8466;SDS011;4270;48.148;11.648;2022-08-11T00:20:04;4.30;;;3.90;;
8466;SDS011;4270;48.148;11.648;2022-08-11T00:22:31;5.40;;;4.17;;
8466;SDS011;4270;48.148;11.648;2022-08-11T00:24:56;5.70;;;4.07;;
8466;SDS011;4270;48.148;11.648;2022-08-11T00:27:32;4.90;;;4.40;;
8466;SDS011;4270;48.148;11.648;2022-08-11T00:29:58;4.47;;;4.07;;
8466;SDS011;4270;48.148;11.648;2022-08-11T00:32:23;4.33;;;3.90;;
8466;SDS011;4270;48.148;11.648;2022-08-11T00:34:48;6.60;;;4.70;;
8466;SDS011;4270;48.148;11.648;2022-08-11T00:37:19;8.47;;;5.07;;
8466;SDS011;4270;48.148;11.648;2022-08-11T00:39:46;5.93;;;4.30;;
8466;SDS011;4270;48.148;11.648;2022-08-11T00:49:38;8.07;;;4.90;;
8466;SDS011;4270;48.148;11.648;2022-08-11T00:54:58;4.80;;;4.30;;
8466;SDS011;4270;48.148;11.648;2022-08-11T01:00:10;6.50;;;4.27;;
8466;SDS011;4270;48.148;11.648;2022-08-11T01:08:13;4.77;;;4.27;;
8466;SDS011;4270;48.148;11.648;2022-08-11T01:10:58;5.47;;;4.97;;
8466;SDS011;4270;48.148;11.648;2022-08-11T01:45:54;5.13;;;4.63;;
8466;SDS011;4270;48.148;11.648;2022-08-11T01:48:38;5.50;;;5.00;;
8466;SDS011;4270;48.148;11.648;2022-08-11T01:53:38;5.27;;;4.67;;
8466;SDS011;4270;48.148;11.648;2022-08-11T01:56:28;8.17;;;5.00;;
8466;SDS011;4270;48.148;11.648;2022-08-11T02:07:16;5.10;;;4.67;;
8466;SDS011;4270;48.148;11.648;2022-08-11T02:09:53;5.87;;;5.07;;
8466;SDS011;4270;48.148;11.648;2022-08-11T02:15:43;6.77;;;5.37;;
8466;SDS011;4270;48.148;11.648;2022-08-11T02:22:59;7.17;;;5.67;;
8466;SDS011;4270;48.148;11.648;2022-08-11T02:28:29;6.00;;;5.33;;
8466;SDS011;4270;48.148;11.648;2022-08-11T02:33:54;5.80;;;4.93;;
8466;SDS011;4270;48.148;11.648;2022-08-11T02:36:23;6.60;;;5.20;;
8466;SDS011;4270;48.148;11.648;2022-08-11T02:44:26;6.70;;;5.07;;
8466;SDS011;4270;48.148;11.648;2022-08-11T02:49:27;6.70;;;5.23;;
8466;SDS011;4270;48.148;11.648;2022-08-11T02:52:23;7.80;;;5.17;;
8466;SDS011;4270;48.148;11.648;2022-08-11T02:57:29;6.23;;;5.50;;
8466;SDS011;4270;48.148;11.648;2022-08-11T03:00:07;5.07;;;4.67;;
8466;SDS011;4270;48.148;11.648;2022-08-11T03:05:11;6.03;;;5.43;;
8466;SDS011;4270;48.148;11.648;2022-08-11T03:21:23;5.70;;;5.10;;
8466;SDS011;4270;48.148;11.648;2022-08-11T03:23:55;6.00;;;5.33;;
8466;SDS011;4270;48.148;11.648;2022-08-11T03:31:24;6.20;;;5.60;;
8466;SDS011;4270;48.148;11.648;2022-08-11T03:49:33;6.90;;;6.20;;
8466;SDS011;4270;48.148;11.648;2022-08-11T03:54:35;7.10;;;6.40;;
8466;SDS011;4270;48.148;11.648;2022-08-11T04:02:34;9.53;;;5.77;;
8466;SDS011;4270;48.148;11.648;2022-08-11T04:10:40;7.33;;;6.57;;
8466;SDS011;4270;48.148;11.648;2022-08-11T04:26:35;6.90;;;6.30;;
8466;SDS011;4270;48.148;11.648;2022-08-11T04:31:47;8.00;;;6.37;;
8466;SDS011;4270;48.148;11.648;2022-08-11T04:37:11;7.40;;;6.70;;
8466;SDS011;4270;48.148;11.648;2022-08-11T04:45:38;9.90;;;6.20;;
8466;SDS011;4270;48.148;11.648;2022-08-11T04:56:45;6.43;;;5.83;;
8466;SDS011;4270;48.148;11.648;2022-08-11T04:59:39;8.27;;;6.30;;
8466;SDS011;4270;48.148;11.648;2022-08-11T05:10:33;10.13;;;6.40;;
8466;SDS011;4270;48.148;11.648;2022-08-11T05:13:05;7.17;;;6.20;;
8466;SDS011;4270;48.148;11.648;2022-08-11T05:15:51;6.90;;;6.20;;
8466;SDS011;4270;48.148;11.648;2022-08-11T05:18:36;6.87;;;5.87;;
8466;SDS011;4270;48.148;11.648;2022-08-11T05:21:28;9.57;;;6.63;;
8466;SDS011;4270;48.148;11.648;2022-08-11T05:24:22;6.73;;;6.13;;
8466;SDS011;4270;48.148;11.648;2022-08-11T05:27:06;7.23;;;6.53;;
8466;SDS011;4270;48.148;11.648;2022-08-11T05:30:02;10.07;;;7.60;;
8466;SDS011;4270;48.148;11.648;2022-08-11T05:32:55;12.03;;;7.70;;
8466;SDS011;4270;48.148;11.648;2022-08-11T05:35:40;7.13;;;5.87;;
8466;SDS011;4270;48.148;11.648;2022-08-11T05:38:26;7.50;;;6.63;;
8466;SDS011;4270;48.148;11.648;2022-08-11T05:41:12;9.60;;;6.30;;
8466;SDS011;4270;48.148;11.648;2022-08-11T05:43:57;7.23;;;6.53;;
8466;SDS011;4270;48.148;11.648;2022-08-11T05:46:42;9.03;;;6.63;;
8466;SDS011;4270;48.148;11.648;2022-08-11T05:49:28;7.03;;;6.27;;
8466;SDS011;4270;48.148;11.648;2022-08-11T05:52:15;11.83;;;7.00;;
8466;SDS011;4270;48.148;11.648;2022-08-11T05:55:02;9.37;;;6.73;;
8466;SDS011;4270;48.148;11.648;2022-08-11T05:57:46;7.80;;;6.30;;
8466;SDS011;4270;48.148;11.648;2022-08-11T06:00:11;9.27;;;7.00;;
8466;SDS011;4270;48.148;11.648;2022-08-11T06:02:39;6.47;;;5.87;;
8466;SDS011;4270;48.148;11.648;2022-08-11T06:05:05;6.63;;;5.77;;
8466;SDS011;4270;48.148;11.648;2022-08-11T06:07:31;7.43;;;6.20;;
8466;SDS011;4270;48.148;11.648;2022-08-11T06:09:57;7.57;;;6.10;;
8466;SDS011;4270;48.148;11.648;2022-08-11T06:12:29;6.23;;;5.63;;
8466;SDS011;4270;48.148;11.648;2022-08-11T06:14:57;9.70;;;5.80;;
8466;SDS011;4270;48.148;11.648;2022-08-11T06:17:27;7.53;;;5.23;;
8466;SDS011;4270;48.148;11.648;2022-08-11T06:19:57;7.63;;;5.90;;
8466;SDS011;4270;48.148;11.648;2022-08-11T06:22:23;6.80;;;6.10;;
8466;SDS011;4270;48.148;11.648;2022-08-11T06:24:50;8.70;;;5.97;;
8466;SDS011;4270;48.148;11.648;2022-08-11T06:27:19;9.17;;;5.83;;
8466;SDS011;4270;48.148;11.648;2022-08-11T06:29:46;6.83;;;4.73;;
8466;SDS011;4270;48.148;11.648;2022-08-11T06:32:13;7.43;;;5.57;;
8466;SDS011;4270;48.148;11.648;2022-08-11T06:34:46;7.23;;;5.00;;
8466;SDS011;4270;48.148;11.648;2022-08-11T06:37:17;5.27;;;4.77;;
8466;SDS011;4270;48.148;11.648;2022-08-11T06:39:49;7.77;;;5.13;;
8466;SDS011;4270;48.148;11.648;2022-08-11T06:42:31;5.43;;;4.80;;
8466;SDS011;4270;48.148;11.648;2022-08-11T06:47:46;6.07;;;4.80;;
8466;SDS011;4270;48.148;11.648;2022-08-11T06:50:15;4.90;;;4.10;;
8466;SDS011;4270;48.148;11.648;2022-08-11T06:52:59;5.60;;;4.13;;
8466;SDS011;4270;48.148;11.648;2022-08-11T06:55:25;5.93;;;3.80;;
8466;SDS011;4270;48.148;11.648;2022-08-11T06:58:11;6.73;;;3.43;;
8466;SDS011;4270;48.148;11.648;2022-08-11T07:00:55;3.80;;;3.33;;
8466;SDS011;4270;48.148;11.648;2022-08-11T07:03:22;4.20;;;3.80;;
8466;SDS011;4270;48.148;11.648;2022-08-11T07:06:04;4.80;;;4.10;;
8466;SDS011;4270;48.148;11.648;2022-08-11T07:14:20;5.50;;;4.27;;
8466;SDS011;4270;48.148;11.648;2022-08-11T07:17:06;6.20;;;4.40;;
8466;SDS011;4270;48.148;11.648;2022-08-11T07:19:32;5.77;;;3.90;;
8466;SDS011;4270;48.148;11.648;2022-08-11T07:22:16;4.67;;;4.27;;
8466;SDS011;4270;48.148;11.648;2022-08-11T07:25:13;5.10;;;4.00;;
8466;SDS011;4270;48.148;11.648;2022-08-11T07:28:03;5.73;;;3.90;;
8466;SDS011;4270;48.148;11.648;2022-08-11T07:30:47;4.50;;;3.60;;
8466;SDS011;4270;48.148;11.648;2022-08-11T07:33:16;4.53;;;3.77;;
8466;SDS011;4270;48.148;11.648;2022-08-11T07:35:47;4.27;;;3.87;;
8466;SDS011;4270;48.148;11.648;2022-08-11T07:38:24;4.30;;;3.90;;
8466;SDS011;4270;48.148;11.648;2022-08-11T07:41:07;5.10;;;4.13;;
8466;SDS011;4270;48.148;11.648;2022-08-11T07:43:33;8.30;;;4.07;;
8466;SDS011;4270;48.148;11.648;2022-08-11T07:45:59;4.70;;;4.00;;
8466;SDS011;4270;48.148;11.648;2022-08-11T07:48:46;4.80;;;3.57;;
8466;SDS011;4270;48.148;11.648;2022-08-11T07:51:29;7.67;;;3.97;;
8466;SDS011;4270;48.148;11.648;2022-08-11T07:54:13;4.43;;;4.03;;
8466;SDS011;4270;48.148;11.648;2022-08-11T07:56:39;5.03;;;3.60;;
8466;SDS011;4270;48.148;11.648;2022-08-11T07:59:04;6.43;;;4.33;;
8466;SDS011;4270;48.148;11.648;2022-08-11T08:01:48;3.70;;;3.40;;
8466;SDS011;4270;48.148;11.648;2022-08-11T08:04:33;7.67;;;4.23;;
8466;SDS011;4270;48.148;11.648;2022-08-11T08:07:18;3.83;;;3.53;;
8466;SDS011;4270;48.148;11.648;2022-08-11T08:10:03;3.80;;;3.40;;
8466;SDS011;4270;48.148;11.648;2022-08-11T08:12:48;4.20;;;3.67;;
8466;SDS011;4270;48.148;11.648;2022-08-11T08:15:31;7.37;;;5.20;;
8466;SDS011;4270;48.148;11.648;2022-08-11T08:18:15;5.43;;;4.07;;
8466;SDS011;4270;48.148;11.648;2022-08-11T08:20:45;4.90;;;4.20;;
8466;SDS011;4270;48.148;11.648;2022-08-11T08:23:11;5.23;;;3.87;;
8466;SDS011;4270;48.148;11.648;2022-08-11T08:25:40;8.00;;;3.97;;
8466;SDS011;4270;48.148;11.648;2022-08-11T08:28:06;5.10;;;3.30;;
8466;SDS011;4270;48.148;11.648;2022-08-11T08:30:33;6.17;;;5.50;;
8466;SDS011;4270;48.148;11.648;2022-08-11T08:35:42;4.23;;;3.33;;
8466;SDS011;4270;48.148;11.648;2022-08-11T08:38:09;7.00;;;3.70;;
8466;SDS011;4270;48.148;11.648;2022-08-11T08:40:34;7.70;;;3.77;;
8466;SDS011;4270;48.148;11.648;2022-08-11T08:43:04;4.30;;;3.47;;
8466;SDS011;4270;48.148;11.648;2022-08-11T08:45:32;7.40;;;3.87;;
8466;SDS011;4270;48.148;11.648;2022-08-11T08:48:02;13.13;;;4.37;;
8466;SDS011;4270;48.148;11.648;2022-08-11T08:50:30;5.03;;;4.10;;
8466;SDS011;4270;48.148;11.648;2022-08-11T08:53:15;7.07;;;3.80;;
8466;SDS011;4270;48.148;11.648;2022-08-11T08:55:44;5.17;;;3.63;;
8466;SDS011;4270;48.148;11.648;2022-08-11T08:58:09;5.20;;;3.97;;
8466;SDS011;4270;48.148;11.648;2022-08-11T09:00:39;5.97;;;4.10;;
8466;SDS011;4270;48.148;11.648;2022-08-11T09:03:05;10.20;;;3.50;;
8466;SDS011;4270;48.148;11.648;2022-08-11T09:05:30;7.20;;;3.77;;
8466;SDS011;4270;48.148;11.648;2022-08-11T09:07:55;8.97;;;3.70;;
8466;SDS011;4270;48.148;11.648;2022-08-11T09:10:22;5.57;;;3.60;;
8466;SDS011;4270;48.148;11.648;2022-08-11T09:12:47;7.30;;;3.50;;
8466;SDS011;4270;48.148;11.648;2022-08-11T09:15:13;4.23;;;3.77;;
8466;SDS011;4270;48.148;11.648;2022-08-11T09:17:42;3.97;;;3.57;;
8466;SDS011;4270;48.148;11.648;2022-08-11T09:22:37;4.10;;;3.17;;
8466;SDS011;4270;48.148;11.648;2022-08-11T09:25:24;4.93;;;3.70;;
8466;SDS011;4270;48.148;11.648;2022-08-11T09:28:11;4.27;;;3.37;;
8466;SDS011;4270;48.148;11.648;2022-08-11T09:30:39;4.10;;;3.30;;
8466;SDS011;4270;48.148;11.648;2022-08-11T09:33:04;15.83;;;3.90;;
8466;SDS011;4270;48.148;11.648;2022-08-11T09:35:32;4.00;;;3.30;;
8466;SDS011;4270;48.148;11.648;2022-08-11T09:37:58;3.70;;;3.13;;
8466;SDS011;4270;48.148;11.648;2022-08-11T09:40:44;3.60;;;3.30;;
8466;SDS011;4270;48.148;11.648;2022-08-11T09:43:09;4.60;;;3.03;;
8466;SDS011;4270;48.148;11.648;2022-08-11T09:45:54;4.47;;;3.27;;
8466;SDS011;4270;48.148;11.648;2022-08-11T09:48:25;6.60;;;3.20;;
8466;SDS011;4270;48.148;11.648;2022-08-11T09:50:53;3.50;;;3.20;;
8466;SDS011;4270;48.148;11.648;2022-08-11T09:53:19;3.20;;;2.37;;
8466;SDS011;4270;48.148;11.648;2022-08-11T09:55:45;5.67;;;3.00;;
8466;SDS011;4270;48.148;11.648;2022-08-11T09:58:11;6.00;;;2.90;;
8466;SDS011;4270;48.148;11.648;2022-08-11T10:00:52;6.37;;;3.30;;
8466;SDS011;4270;48.148;11.648;2022-08-11T10:03:22;4.60;;;3.00;;
8466;SDS011;4270;48.148;11.648;2022-08-11T10:05:50;3.53;;;3.23;;
8466;SDS011;4270;48.148;11.648;2022-08-11T10:08:36;5.10;;;3.00;;
8466;SDS011;4270;48.148;11.648;2022-08-11T10:11:02;6.40;;;3.70;;
8466;SDS011;4270;48.148;11.648;2022-08-11T10:13:30;5.90;;;3.53;;
8466;SDS011;4270;48.148;11.648;2022-08-11T10:15:58;4.77;;;3.20;;
8466;SDS011;4270;48.148;11.648;2022-08-11T10:18:34;3.40;;;3.10;;
8466;SDS011;4270;48.148;11.648;2022-08-11T10:21:10;3.70;;;2.70;;
8466;SDS011;4270;48.148;11.648;2022-08-11T10:23:38;7.87;;;3.40;;
8466;SDS011;4270;48.148;11.648;2022-08-11T10:26:22;5.70;;;3.00;;
8466;SDS011;4270;48.148;11.648;2022-08-11T10:29:07;5.03;;;2.90;;
8466;SDS011;4270;48.148;11.648;2022-08-11T10:31:54;3.70;;;2.67;;
8466;SDS011;4270;48.148;11.648;2022-08-11T10:34:37;4.90;;;3.13;;
8466;SDS011;4270;48.148;11.648;2022-08-11T10:37:03;5.20;;;3.67;;
8466;SDS011;4270;48.148;11.648;2022-08-11T10:39:31;3.60;;;3.30;;
8466;SDS011;4270;48.148;11.648;2022-08-11T10:41:56;6.30;;;3.27;;
8466;SDS011;4270;48.148;11.648;2022-08-11T10:44:44;9.10;;;3.00;;
8466;SDS011;4270;48.148;11.648;2022-08-11T10:47:10;6.93;;;2.83;;
8466;SDS011;4270;48.148;11.648;2022-08-11T10:49:55;7.50;;;2.90;;
8466;SDS011;4270;48.148;11.648;2022-08-11T10:52:39;6.93;;;3.30;;
8466;SDS011;4270;48.148;11.648;2022-08-11T10:55:23;4.13;;;3.07;;
8466;SDS011;4270;48.148;11.648;2022-08-11T10:58:07;3.50;;;3.00;;
8466;SDS011;4270;48.148;11.648;2022-08-11T11:00:52;4.43;;;2.80;;
8466;SDS011;4270;48.148;11.648;2022-08-11T11:03:20;5.43;;;3.00;;
8466;SDS011;4270;48.148;11.648;2022-08-11T11:05:46;4.37;;;2.77;;
8466;SDS011;4270;48.148;11.648;2022-08-11T11:08:13;3.03;;;2.60;;
8466;SDS011;4270;48.148;11.648;2022-08-11T11:10:57;5.47;;;3.30;;
8466;SDS011;4270;48.148;11.648;2022-08-11T11:13:23;5.90;;;2.90;;
8466;SDS011;4270;48.148;11.648;2022-08-11T11:16:07;8.93;;;3.83;;
8466;SDS011;4270;48.148;11.648;2022-08-11T11:19:08;6.80;;;3.07;;
8466;SDS011;4270;48.148;11.648;2022-08-11T11:21:35;4.00;;;3.47;;
8466;SDS011;4270;48.148;11.648;2022-08-11T11:24:11;6.20;;;3.07;;
8466;SDS011;4270;48.148;11.648;2022-08-11T11:34:40;3.50;;;2.43;;
8466;SDS011;4270;48.148;11.648;2022-08-11T11:37:08;3.90;;;2.37;;
8466;SDS011;4270;48.148;11.648;2022-08-11T11:39:36;4.70;;;2.77;;
8466;SDS011;4270;48.148;11.648;2022-08-11T11:42:02;6.40;;;3.13;;
8466;SDS011;4270;48.148;11.648;2022-08-11T11:44:28;6.00;;;3.37;;
8466;SDS011;4270;48.148;11.648;2022-08-11T11:46:54;4.30;;;2.70;;
8466;SDS011;4270;48.148;11.648;2022-08-11T11:49:25;5.67;;;2.77;;
8466;SDS011;4270;48.148;11.648;2022-08-11T11:51:51;6.07;;;3.00;;
8466;SDS011;4270;48.148;11.648;2022-08-11T11:54:19;5.23;;;3.03;;
8466;SDS011;4270;48.148;11.648;2022-08-11T11:56:45;3.00;;;2.70;;
8466;SDS011;4270;48.148;11.648;2022-08-11T11:59:10;4.53;;;2.70;;
8466;SDS011;4270;48.148;11.648;2022-08-11T12:01:55;30.10;;;5.10;;
8466;SDS011;4270;48.148;11.648;2022-08-11T12:04:21;8.27;;;2.80;;
8466;SDS011;4270;48.148;11.648;2022-08-11T12:06:46;2.93;;;2.63;;
8466;SDS011;4270;48.148;11.648;2022-08-11T12:09:12;3.23;;;2.60;;
8466;SDS011;4270;48.148;11.648;2022-08-11T12:11:42;4.70;;;2.70;;
8466;SDS011;4270;48.148;11.648;2022-08-11T12:14:26;2.80;;;2.50;;
8466;SDS011;4270;48.148;11.648;2022-08-11T12:16:52;8.00;;;2.90;;
8466;SDS011;4270;48.148;11.648;2022-08-11T12:19:22;5.30;;;2.43;;
8466;SDS011;4270;48.148;11.648;2022-08-11T12:21:47;4.23;;;2.87;;
8466;SDS011;4270;48.148;11.648;2022-08-11T12:24:31;5.07;;;3.00;;
8466;SDS011;4270;48.148;11.648;2022-08-11T12:27:16;4.30;;;2.60;;
8466;SDS011;4270;48.148;11.648;2022-08-11T12:29:45;3.63;;;2.87;;
8466;SDS011;4270;48.148;11.648;2022-08-11T12:32:11;2.77;;;2.57;;
8466;SDS011;4270;48.148;11.648;2022-08-11T12:34:37;5.10;;;2.50;;
8466;SDS011;4270;48.148;11.648;2022-08-11T12:37:02;3.13;;;2.73;;
8466;SDS011;4270;48.148;11.648;2022-08-11T12:39:33;3.60;;;2.70;;
8466;SDS011;4270;48.148;11.648;2022-08-11T12:42:19;2.33;;;1.97;;
8466;SDS011;4270;48.148;11.648;2022-08-11T12:45:08;4.57;;;2.13;;
8466;SDS011;4270;48.148;11.648;2022-08-11T12:47:58;3.10;;;2.27;;
8466;SDS011;4270;48.148;11.648;2022-08-11T12:50:43;2.90;;;2.60;;
8466;SDS011;4270;48.148;11.648;2022-08-11T12:53:30;3.37;;;2.80;;
8466;SDS011;4270;48.148;11.648;2022-08-11T12:55:58;3.03;;;2.20;;
8466;SDS011;4270;48.148;11.648;2022-08-11T12:58:45;2.80;;;2.60;;
8466;SDS011;4270;48.148;11.648;2022-08-11T13:01:12;5.10;;;2.87;;
8466;SDS011;4270;48.148;11.648;2022-08-11T13:03:56;2.80;;;2.50;;
8466;SDS011;4270;48.148;11.648;2022-08-11T13:06:40;2.73;;;2.50;;
8466;SDS011;4270;48.148;11.648;2022-08-11T13:09:05;2.67;;;2.47;;
8466;SDS011;4270;48.148;11.648;2022-08-11T13:11:31;3.40;;;2.23;;
8466;SDS011;4270;48.148;11.648;2022-08-11T13:14:15;6.50;;;2.83;;
8466;SDS011;4270;48.148;11.648;2022-08-11T13:16:41;4.50;;;2.70;;
8466;SDS011;4270;48.148;11.648;2022-08-11T13:19:26;3.43;;;2.47;;
8466;SDS011;4270;48.148;11.648;2022-08-11T13:21:51;2.30;;;2.10;;
8466;SDS011;4270;48.148;11.648;2022-08-11T13:24:17;4.70;;;2.80;;
8466;SDS011;4270;48.148;11.648;2022-08-11T13:26:43;7.27;;;2.50;;
8466;SDS011;4270;48.148;11.648;2022-08-11T13:29:09;3.20;;;2.70;;
8466;SDS011;4270;48.148;11.648;2022-08-11T13:31:35;3.37;;;2.80;;
8466;SDS011;4270;48.148;11.648;2022-08-11T13:34:00;3.80;;;2.40;;
8466;SDS011;4270;48.148;11.648;2022-08-11T13:36:27;6.70;;;2.90;;
8466;SDS011;4270;48.148;11.648;2022-08-11T13:38:53;3.60;;;2.70;;
8466;SDS011;4270;48.148;11.648;2022-08-11T13:41:19;5.60;;;2.70;;
8466;SDS011;4270;48.148;11.648;2022-08-11T13:44:05;2.30;;;2.10;;
8466;SDS011;4270;48.148;11.648;2022-08-11T13:46:30;2.80;;;2.50;;
8466;SDS011;4270;48.148;11.648;2022-08-11T13:48:56;2.53;;;2.33;;
8466;SDS011;4270;48.148;11.648;2022-08-11T13:51:22;4.13;;;2.27;;
8466;SDS011;4270;48.148;11.648;2022-08-11T13:54:07;3.87;;;2.50;;
8466;SDS011;4270;48.148;11.648;2022-08-11T13:56:34;3.90;;;3.00;;
8466;SDS011;4270;48.148;11.648;2022-08-11T13:59:00;3.53;;;2.83;;
8466;SDS011;4270;48.148;11.648;2022-08-11T14:01:28;3.23;;;2.50;;
8466;SDS011;4270;48.148;11.648;2022-08-11T14:03:54;2.57;;;2.27;;
8466;SDS011;4270;48.148;11.648;2022-08-11T14:06:23;4.70;;;2.30;;
8466;SDS011;4270;48.148;11.648;2022-08-11T14:08:49;3.07;;;2.77;;
8466;SDS011;4270;48.148;11.648;2022-08-11T14:11:17;6.00;;;2.23;;
8466;SDS011;4270;48.148;11.648;2022-08-11T14:14:01;3.00;;;2.50;;
8466;SDS011;4270;48.148;11.648;2022-08-11T14:16:31;2.13;;;1.93;;
8466;SDS011;4270;48.148;11.648;2022-08-11T14:18:59;2.83;;;2.50;;
8466;SDS011;4270;48.148;11.648;2022-08-11T14:21:25;2.40;;;2.20;;
8466;SDS011;4270;48.148;11.648;2022-08-11T14:24:10;3.37;;;2.50;;
8466;SDS011;4270;48.148;11.648;2022-08-11T14:26:36;4.00;;;2.40;;
8466;SDS011;4270;48.148;11.648;2022-08-11T14:31:32;2.80;;;2.60;;
8466;SDS011;4270;48.148;11.648;2022-08-11T14:34:00;3.80;;;2.60;;
8466;SDS011;4270;48.148;11.648;2022-08-11T14:36:27;5.30;;;2.80;;
8466;SDS011;4270;48.148;11.648;2022-08-11T14:38:53;2.30;;;2.13;;
8466;SDS011;4270;48.148;11.648;2022-08-11T14:41:19;6.63;;;2.83;;
8466;SDS011;4270;48.148;11.648;2022-08-11T14:44:03;2.83;;;2.23;;
8466;SDS011;4270;48.148;11.648;2022-08-11T14:46:47;2.43;;;2.23;;
8466;SDS011;4270;48.148;11.648;2022-08-11T14:49:28;3.13;;;2.30;;
8466;SDS011;4270;48.148;11.648;2022-08-11T14:51:54;2.73;;;2.37;;
8466;SDS011;4270;48.148;11.648;2022-08-11T14:54:23;2.60;;;2.40;;
8466;SDS011;4270;48.148;11.648;2022-08-11T14:57:08;5.33;;;2.47;;
8466;SDS011;4270;48.148;11.648;2022-08-11T14:59:33;2.70;;;2.50;;
8466;SDS011;4270;48.148;11.648;2022-08-11T15:02:00;4.70;;;3.47;;
8466;SDS011;4270;48.148;11.648;2022-08-11T15:04:44;4.53;;;2.70;;
8466;SDS011;4270;48.148;11.648;2022-08-11T15:07:09;3.37;;;2.53;;
8466;SDS011;4270;48.148;11.648;2022-08-11T15:09:35;3.40;;;2.50;;
8466;SDS011;4270;48.148;11.648;2022-08-11T15:12:00;3.10;;;2.37;;
8466;SDS011;4270;48.148;11.648;2022-08-11T15:14:40;3.50;;;2.70;;
8466;SDS011;4270;48.148;11.648;2022-08-11T15:17:24;5.97;;;2.70;;
8466;SDS011;4270;48.148;11.648;2022-08-11T15:19:50;5.33;;;2.30;;
8466;SDS011;4270;48.148;11.648;2022-08-11T15:22:34;3.30;;;2.40;;
8466;SDS011;4270;48.148;11.648;2022-08-11T15:25:35;2.53;;;2.33;;
8466;SDS011;4270;48.148;11.648;2022-08-11T15:28:02;3.70;;;2.53;;
8466;SDS011;4270;48.148;11.648;2022-08-11T15:30:46;3.50;;;2.20;;
8466;SDS011;4270;48.148;11.648;2022-08-11T15:33:33;2.63;;;2.37;;
8466;SDS011;4270;48.148;11.648;2022-08-11T15:36:18;3.40;;;2.83;;
8466;SDS011;4270;48.148;11.648;2022-08-11T15:39:05;4.90;;;2.90;;
8466;SDS011;4270;48.148;11.648;2022-08-11T15:41:43;4.33;;;2.60;;
8466;SDS011;4270;48.148;11.648;2022-08-11T15:44:29;3.43;;;2.50;;
8466;SDS011;4270;48.148;11.648;2022-08-11T15:47:25;3.23;;;2.50;;
8466;SDS011;4270;48.148;11.648;2022-08-11T15:49:52;4.10;;;2.10;;
8466;SDS011;4270;48.148;11.648;2022-08-11T15:52:18;3.10;;;2.80;;
8466;SDS011;4270;48.148;11.648;2022-08-11T15:54:45;4.03;;;2.37;;
8466;SDS011;4270;48.148;11.648;2022-08-11T15:57:11;3.57;;;2.10;;
8466;SDS011;4270;48.148;11.648;2022-08-11T16:00:03;4.17;;;2.00;;
8466;SDS011;4270;48.148;11.648;2022-08-11T16:02:48;2.50;;;2.20;;
8466;SDS011;4270;48.148;11.648;2022-08-11T16:05:14;4.57;;;2.10;;
8466;SDS011;4270;48.148;11.648;2022-08-11T16:07:41;2.10;;;1.90;;
8466;SDS011;4270;48.148;11.648;2022-08-11T16:10:13;4.40;;;2.50;;
8466;SDS011;4270;48.148;11.648;2022-08-11T16:15:49;3.20;;;2.27;;
8466;SDS011;4270;48.148;11.648;2022-08-11T16:18:35;4.43;;;2.50;;
8466;SDS011;4270;48.148;11.648;2022-08-11T16:21:12;3.70;;;2.30;;
8466;SDS011;4270;48.148;11.648;2022-08-11T16:23:39;4.17;;;2.20;;
8466;SDS011;4270;48.148;11.648;2022-08-11T16:26:06;2.37;;;2.17;;
8466;SDS011;4270;48.148;11.648;2022-08-11T16:28:33;4.53;;;2.60;;
8466;SDS011;4270;48.148;11.648;2022-08-11T16:30:58;11.33;;;2.60;;
8466;SDS011;4270;48.148;11.648;2022-08-11T16:33:24;3.70;;;2.50;;
8466;SDS011;4270;48.148;11.648;2022-08-11T16:35:50;2.00;;;1.90;;
8466;SDS011;4270;48.148;11.648;2022-08-11T16:38:34;2.33;;;2.13;;
8466;SDS011;4270;48.148;11.648;2022-08-11T16:41:11;2.83;;;2.13;;
8466;SDS011;4270;48.148;11.648;2022-08-11T16:43:38;2.23;;;2.03;;
8466;SDS011;4270;48.148;11.648;2022-08-11T16:46:23;5.50;;;2.47;;
8466;SDS011;4270;48.148;11.648;2022-08-11T16:49:20;3.53;;;2.43;;
8466;SDS011;4270;48.148;11.648;2022-08-11T16:51:48;3.20;;;2.87;;
8466;SDS011;4270;48.148;11.648;2022-08-11T16:54:14;3.57;;;2.70;;
8466;SDS011;4270;48.148;11.648;2022-08-11T16:56:44;3.17;;;2.57;;
8466;SDS011;4270;48.148;11.648;2022-08-11T16:59:15;3.10;;;2.17;;
8466;SDS011;4270;48.148;11.648;2022-08-11T17:01:42;2.90;;;2.30;;
8466;SDS011;4270;48.148;11.648;2022-08-11T17:07:02;5.67;;;2.50;;
8466;SDS011;4270;48.148;11.648;2022-08-11T17:09:46;2.83;;;2.57;;
8466;SDS011;4270;48.148;11.648;2022-08-11T17:12:31;4.17;;;2.60;;
8466;SDS011;4270;48.148;11.648;2022-08-11T17:15:17;4.43;;;2.50;;
8466;SDS011;4270;48.148;11.648;2022-08-11T17:18:03;4.70;;;2.20;;
8466;SDS011;4270;48.148;11.648;2022-08-11T17:20:30;3.70;;;2.17;;
8466;SDS011;4270;48.148;11.648;2022-08-11T17:22:56;2.57;;;2.37;;
8466;SDS011;4270;48.148;11.648;2022-08-11T17:25:40;2.90;;;2.40;;
8466;SDS011;4270;48.148;11.648;2022-08-11T17:28:06;3.40;;;2.10;;
8466;SDS011;4270;48.148;11.648;2022-08-11T17:30:32;4.67;;;2.10;;
8466;SDS011;4270;48.148;11.648;2022-08-11T17:33:16;3.70;;;2.20;;
8466;SDS011;4270;48.148;11.648;2022-08-11T17:36:01;2.20;;;2.00;;
8466;SDS011;4270;48.148;11.648;2022-08-11T17:38:26;2.03;;;1.83;;
8466;SDS011;4270;48.148;11.648;2022-08-11T17:40:54;3.00;;;2.10;;
8466;SDS011;4270;48.148;11.648;2022-08-11T17:43:39;2.67;;;2.10;;
8466;SDS011;4270;48.148;11.648;2022-08-11T17:46:23;4.63;;;1.90;;
8466;SDS011;4270;48.148;11.648;2022-08-11T17:49:08;1.80;;;1.70;;
8466;SDS011;4270;48.148;11.648;2022-08-11T17:51:35;4.43;;;1.97;;
8466;SDS011;4270;48.148;11.648;2022-08-11T17:54:20;7.23;;;2.03;;
8466;SDS011;4270;48.148;11.648;2022-08-11T17:57:04;1.90;;;1.80;;
8466;SDS011;4270;48.148;11.648;2022-08-11T17:59:49;7.80;;;2.20;;
8466;SDS011;4270;48.148;11.648;2022-08-11T18:05:04;3.07;;;1.80;;
8466;SDS011;4270;48.148;11.648;2022-08-11T18:07:30;2.20;;;2.00;;
8466;SDS011;4270;48.148;11.648;2022-08-11T18:10:14;2.60;;;1.63;;
8466;SDS011;4270;48.148;11.648;2022-08-11T18:12:58;2.27;;;2.07;;
8466;SDS011;4270;48.148;11.648;2022-08-11T18:15:42;2.20;;;2.00;;
8466;SDS011;4270;48.148;11.648;2022-08-11T18:18:27;2.40;;;2.20;;
8466;SDS011;4270;48.148;11.648;2022-08-11T18:21:12;3.43;;;2.00;;
8466;SDS011;4270;48.148;11.648;2022-08-11T18:23:56;1.70;;;1.60;;
8466;SDS011;4270;48.148;11.648;2022-08-11T18:26:42;2.77;;;2.00;;
8466;SDS011;4270;48.148;11.648;2022-08-11T18:29:27;2.37;;;2.00;;
8466;SDS011;4270;48.148;11.648;2022-08-11T18:32:13;2.00;;;1.80;;
8466;SDS011;4270;48.148;11.648;2022-08-11T18:34:58;4.63;;;1.90;;
8466;SDS011;4270;48.148;11.648;2022-08-11T18:37:45;3.43;;;2.13;;
8466;SDS011;4270;48.148;11.648;2022-08-11T18:40:29;2.50;;;1.80;;
8466;SDS011;4270;48.148;11.648;2022-08-11T18:43:14;2.27;;;1.30;;
8466;SDS011;4270;48.148;11.648;2022-08-11T18:46:03;2.10;;;1.90;;
8466;SDS011;4270;48.148;11.648;2022-08-11T18:48:52;1.70;;;1.60;;
8466;SDS011;4270;48.148;11.648;2022-08-11T18:51:37;1.90;;;1.80;;
8466;SDS011;4270;48.148;11.648;2022-08-11T18:54:22;2.20;;;1.83;;
8466;SDS011;4270;48.148;11.648;2022-08-11T18:57:06;2.13;;;1.60;;
8466;SDS011;4270;48.148;11.648;2022-08-11T18:59:51;1.90;;;1.70;;
8466;SDS011;4270;48.148;11.648;2022-08-11T19:02:36;2.63;;;2.10;;
8466;SDS011;4270;48.148;11.648;2022-08-11T19:05:20;6.53;;;2.10;;
8466;SDS011;4270;48.148;11.648;2022-08-11T19:08:04;4.03;;;2.17;;
8466;SDS011;4270;48.148;11.648;2022-08-11T19:10:49;2.93;;;1.80;;
8466;SDS011;4270;48.148;11.648;2022-08-11T19:13:33;2.03;;;1.80;;
8466;SDS011;4270;48.148;11.648;2022-08-11T19:16:19;4.33;;;1.70;;
8466;SDS011;4270;48.148;11.648;2022-08-11T19:19:04;2.23;;;1.70;;
8466;SDS011;4270;48.148;11.648;2022-08-11T19:21:49;3.37;;;1.80;;